createdAt,value
2019-06-08T00:00:32.688Z,96.70
2019-06-08T00:01:32.815Z,96.42
2019-06-08T00:02:32.933Z,96.89
2019-06-08T00:03:33.072Z,96.61
2019-06-08T00:04:33.217Z,96.32
2019-06-08T00:05:33.346Z,96.42
2019-06-08T00:06:33.495Z,96.61
2019-06-08T00:07:33.619Z,96.51
2019-06-08T00:08:33.768Z,96.22
2019-06-08T00:09:33.889Z,96.80
2019-06-08T00:10:34.033Z,95.94
2019-06-08T00:11:34.165Z,95.84
2019-06-08T00:12:34.298Z,96.66
2019-06-08T00:13:34.530Z,96.89
2019-06-08T00:14:34.563Z,97.04
2019-06-08T00:15:34.771Z,96.94
2019-06-08T00:16:34.845Z,97.04
2019-06-08T00:17:38.741Z,96.94
2019-06-08T00:18:35.118Z,97.23
2019-06-08T00:19:35.252Z,97.13
2019-06-08T00:20:35.376Z,97.42
2019-06-08T00:21:35.501Z,97.33
2019-06-08T00:22:35.658Z,97.71
2019-06-08T00:23:35.786Z,97.80
2019-06-08T00:24:35.913Z,97.80
2019-06-08T00:25:36.060Z,97.90
2019-06-08T00:26:36.185Z,97.80
2019-06-08T00:27:36.310Z,98.38
2019-06-08T00:28:36.441Z,98.57
2019-06-08T00:29:36.584Z,98.38
2019-06-08T00:30:37.220Z,97.80
2019-06-08T00:31:36.833Z,97.33
2019-06-08T00:32:36.982Z,96.66
2019-06-08T00:33:37.095Z,96.75
2019-06-08T00:34:37.223Z,96.75
2019-06-08T00:35:37.352Z,96.56
2019-06-08T00:36:37.557Z,96.66
2019-06-08T00:37:37.640Z,96.84
2019-06-08T00:38:37.772Z,96.84
2019-06-08T00:39:37.917Z,96.56
2019-06-08T00:40:38.087Z,96.56
2019-06-08T00:41:38.194Z,96.18
2019-06-08T00:42:38.324Z,96.18
2019-06-08T00:43:38.497Z,96.56
2019-06-08T00:44:38.605Z,96.37
2019-06-08T00:45:38.736Z,96.56
2019-06-08T00:46:38.875Z,95.61
2019-06-08T00:47:47.393Z,95.89
2019-06-08T00:48:39.139Z,96.70
2019-06-08T00:49:39.276Z,95.70
2019-06-08T00:50:39.410Z,95.89
2019-06-08T00:51:39.585Z,95.79
2019-06-08T00:52:39.684Z,95.94
2019-06-08T00:53:39.821Z,96.22
2019-06-08T00:54:39.973Z,96.13
2019-06-08T00:55:40.101Z,95.98
2019-06-08T00:56:40.225Z,95.94
2019-06-08T00:57:40.360Z,95.22
2019-06-08T00:58:40.503Z,95.03
2019-06-08T00:59:40.614Z,94.74
2019-06-08T01:00:40.745Z,95.07
2019-06-08T01:01:40.880Z,94.93
2019-06-08T01:02:41.030Z,94.60
2019-06-08T01:03:41.159Z,94.98
2019-06-08T01:04:41.291Z,95.51
2019-06-08T01:05:41.428Z,95.03
2019-06-08T01:06:41.563Z,95.41
2019-06-08T01:07:41.682Z,95.32
2019-06-08T01:08:41.812Z,94.55
2019-06-08T01:09:41.965Z,94.55
2019-06-08T01:10:42.080Z,94.55
2019-06-08T01:11:42.217Z,95.03
2019-06-08T01:12:42.349Z,94.55
2019-06-08T01:13:42.517Z,94.55
2019-06-08T01:14:42.629Z,94.02
2019-06-08T01:15:42.753Z,94.74
2019-06-08T01:16:42.889Z,94.21
2019-06-08T01:17:43.041Z,94.70
2019-06-08T01:18:43.159Z,94.41
2019-06-08T01:19:43.290Z,94.79
2019-06-08T01:20:43.447Z,95.07
2019-06-08T01:21:43.552Z,95.07
2019-06-08T01:22:43.698Z,94.50
2019-06-08T01:23:43.821Z,94.74
2019-06-08T01:24:43.976Z,94.21
2019-06-08T01:25:44.098Z,94.26
2019-06-08T01:26:44.239Z,94.65
2019-06-08T01:27:44.377Z,94.93
2019-06-08T01:28:44.516Z,94.70
2019-06-08T01:29:44.635Z,94.84
2019-06-08T01:30:44.764Z,94.98
2019-06-08T01:31:44.973Z,95.07
2019-06-08T01:32:45.058Z,94.79
2019-06-08T01:33:45.200Z,94.17
2019-06-08T01:34:45.314Z,94.70
2019-06-08T01:35:45.462Z,94.60
2019-06-08T01:36:45.588Z,94.98
2019-06-08T01:37:45.715Z,94.60
2019-06-08T01:38:45.907Z,94.55
2019-06-08T01:39:46.031Z,94.41
2019-06-08T01:40:46.158Z,94.79
2019-06-08T01:41:46.349Z,93.74
2019-06-08T01:42:46.442Z,93.93
2019-06-08T01:43:46.586Z,94.12
2019-06-08T01:44:46.708Z,93.26
2019-06-08T01:45:46.834Z,93.55
2019-06-08T01:46:46.965Z,93.45
2019-06-08T01:47:47.100Z,93.07
2019-06-08T01:48:47.241Z,93.16
2019-06-08T01:49:47.372Z,93.35
2019-06-08T01:50:47.567Z,93.26
2019-06-08T01:51:47.569Z,92.97
2019-06-08T01:52:47.701Z,94.12
2019-06-08T01:53:47.828Z,93.21
2019-06-08T01:54:47.972Z,93.45
2019-06-08T01:55:48.093Z,93.93
2019-06-08T01:56:48.224Z,94.02
2019-06-08T01:57:48.352Z,93.21
2019-06-08T01:58:48.485Z,94.02
2019-06-08T01:59:48.666Z,93.84
2019-06-08T02:00:48.792Z,94.41
2019-06-08T02:01:48.926Z,93.93
2019-06-08T02:02:49.064Z,93.50
2019-06-08T02:03:49.196Z,93.98
2019-06-08T02:04:49.320Z,94.41
2019-06-08T02:05:49.456Z,93.93
2019-06-08T02:06:49.599Z,94.02
2019-06-08T02:07:49.717Z,93.21
2019-06-08T02:08:49.854Z,92.97
2019-06-08T02:09:49.976Z,93.16
2019-06-08T02:10:50.167Z,93.45
2019-06-08T02:11:50.296Z,93.26
2019-06-08T02:12:50.424Z,94.21
2019-06-08T02:13:50.553Z,93.21
2019-06-08T02:14:50.677Z,93.50
2019-06-08T02:15:50.797Z,94.17
2019-06-08T02:16:50.929Z,94.17
2019-06-08T02:17:51.067Z,93.74
2019-06-08T02:18:51.393Z,93.98
2019-06-08T02:19:51.323Z,94.17
2019-06-08T02:20:51.451Z,93.98
2019-06-08T02:21:51.586Z,93.98
2019-06-08T02:22:51.740Z,93.88
2019-06-08T02:23:51.846Z,94.17
2019-06-08T02:24:51.974Z,93.31
2019-06-08T02:25:52.098Z,93.40
2019-06-08T02:26:52.232Z,93.50
2019-06-08T02:27:52.363Z,93.79
2019-06-08T02:28:52.499Z,93.12
2019-06-08T02:29:52.628Z,93.50
2019-06-08T02:30:52.757Z,93.60
2019-06-08T02:31:52.892Z,93.21
2019-06-08T02:32:53.021Z,93.40
2019-06-08T02:33:53.155Z,93.21
2019-06-08T02:34:53.285Z,93.31
2019-06-08T02:35:53.413Z,93.12
2019-06-08T02:36:53.545Z,93.31
2019-06-08T02:37:53.676Z,93.31
2019-06-08T02:38:53.804Z,93.31
2019-06-08T02:39:53.944Z,93.60
2019-06-08T02:40:54.061Z,93.31
2019-06-08T02:41:54.193Z,93.60
2019-06-08T02:42:54.342Z,93.98
2019-06-08T02:43:54.472Z,93.12
2019-06-08T02:44:54.601Z,93.12
2019-06-08T02:45:54.751Z,93.31
2019-06-08T02:46:54.869Z,92.74
2019-06-08T02:47:54.995Z,92.83
2019-06-08T02:49:04.129Z,92.54
2019-06-08T02:49:55.260Z,92.54
2019-06-08T02:50:55.405Z,92.54
2019-06-08T02:51:55.540Z,92.54
2019-06-08T02:52:55.644Z,92.64
2019-06-08T02:53:55.781Z,92.35
2019-06-08T02:54:55.909Z,92.16
2019-06-08T02:55:56.044Z,91.88
2019-06-08T02:56:56.179Z,92.54
2019-06-08T02:57:56.320Z,92.07
2019-06-08T02:58:56.434Z,92.25
2019-06-08T02:59:56.564Z,92.25
2019-06-08T03:00:56.696Z,91.02
2019-06-08T03:01:56.828Z,90.73
2019-06-08T03:02:56.989Z,90.82
2019-06-08T03:03:57.103Z,90.82
2019-06-08T03:04:57.227Z,90.63
2019-06-08T03:05:57.379Z,90.92
2019-06-08T03:06:57.509Z,91.11
2019-06-08T03:07:57.638Z,91.11
2019-06-08T03:08:57.810Z,91.39
2019-06-08T03:09:57.917Z,91.11
2019-06-08T03:10:58.033Z,90.92
2019-06-08T03:11:58.156Z,90.63
2019-06-08T03:12:58.296Z,91.11
2019-06-08T03:13:58.429Z,90.92
2019-06-08T03:14:58.615Z,90.92
2019-06-08T03:15:58.742Z,90.63
2019-06-08T03:16:58.892Z,91.20
2019-06-08T03:17:59.007Z,91.39
2019-06-08T03:18:59.167Z,91.39
2019-06-08T03:19:59.298Z,91.11
2019-06-08T03:20:59.426Z,90.82
2019-06-08T03:21:59.561Z,91.02
2019-06-08T03:22:59.685Z,90.63
2019-06-08T03:23:59.813Z,90.82
2019-06-08T03:24:59.957Z,90.44
2019-06-08T03:26:00.102Z,91.02
2019-06-08T03:27:00.206Z,91.49
2019-06-08T03:28:00.352Z,91.68
2019-06-08T03:29:00.468Z,91.20
2019-06-08T03:30:15.050Z,91.88
2019-06-08T03:31:00.756Z,91.11
2019-06-08T03:32:00.932Z,91.11
2019-06-08T03:33:00.989Z,91.49
2019-06-08T03:34:01.121Z,91.49
2019-06-08T03:35:01.258Z,90.63
2019-06-08T03:36:01.392Z,90.44
2019-06-08T03:37:01.512Z,90.73
2019-06-08T03:38:01.649Z,90.53
2019-06-08T03:39:01.783Z,90.92
2019-06-08T03:40:01.933Z,89.96
2019-06-08T03:41:02.046Z,91.02
2019-06-08T03:42:02.179Z,90.53
2019-06-08T03:43:02.311Z,90.34
2019-06-08T03:44:02.464Z,89.29
2019-06-08T03:45:02.596Z,89.67
2019-06-08T03:46:02.725Z,89.58
2019-06-08T03:47:02.879Z,89.67
2019-06-08T03:48:02.992Z,89.29
2019-06-08T03:49:03.121Z,88.53
2019-06-08T03:50:03.242Z,89.10
2019-06-08T03:51:03.382Z,89.39
2019-06-08T03:52:03.517Z,90.06
2019-06-08T03:53:03.649Z,89.58
2019-06-08T03:54:03.783Z,89.05
2019-06-08T03:55:03.903Z,88.43
2019-06-08T03:56:04.093Z,87.76
2019-06-08T03:57:04.196Z,88.00
2019-06-08T03:58:04.333Z,88.38
2019-06-08T03:59:04.473Z,88.43
2019-06-08T04:00:12.900Z,88.05
2019-06-08T04:01:04.736Z,87.43
2019-06-08T04:02:04.893Z,87.95
2019-06-08T04:03:05.010Z,88.43
2019-06-08T04:04:05.151Z,87.76
2019-06-08T04:05:05.292Z,87.48
2019-06-08T04:06:05.443Z,86.90
2019-06-08T04:07:05.564Z,87.66
2019-06-08T04:08:05.693Z,87.76
2019-06-08T04:09:05.828Z,87.14
2019-06-08T04:10:05.944Z,87.66
2019-06-08T04:11:06.069Z,87.48
2019-06-08T04:12:06.208Z,87.38
2019-06-08T04:13:06.381Z,86.52
2019-06-08T04:14:06.493Z,86.90
2019-06-08T04:15:06.625Z,85.85
2019-06-08T04:16:06.754Z,85.85
2019-06-08T04:17:06.904Z,86.04
2019-06-08T04:18:07.028Z,86.04
2019-06-08T04:19:07.186Z,85.94
2019-06-08T04:20:11.469Z,85.38
2019-06-08T04:21:07.446Z,84.84
2019-06-08T04:22:07.568Z,85.09
2019-06-08T04:23:07.689Z,84.80
2019-06-08T04:24:07.825Z,84.89
2019-06-08T04:25:07.957Z,84.94
2019-06-08T04:26:08.084Z,85.61
2019-06-08T04:27:08.220Z,85.80
2019-06-08T04:28:08.365Z,84.99
2019-06-08T04:29:08.486Z,84.89
2019-06-08T04:30:08.620Z,83.56
2019-06-08T04:31:08.747Z,84.55
2019-06-08T04:32:08.876Z,85.13
2019-06-08T04:33:09.006Z,84.65
2019-06-08T04:34:09.136Z,83.65
2019-06-08T04:35:09.275Z,83.94
2019-06-08T04:36:09.406Z,83.50
2019-06-08T04:37:09.543Z,83.03
2019-06-08T04:38:09.675Z,83.89
2019-06-08T04:39:09.805Z,83.60
2019-06-08T04:40:09.962Z,84.08
2019-06-08T04:41:10.077Z,83.69
2019-06-08T04:42:10.203Z,83.50
2019-06-08T04:43:10.350Z,83.79
2019-06-08T04:44:10.467Z,83.79
2019-06-08T04:45:10.594Z,83.22
2019-06-08T04:46:10.723Z,83.12
2019-06-08T04:47:10.846Z,84.17
2019-06-08T04:48:10.993Z,83.40
2019-06-08T04:49:11.107Z,82.79
2019-06-08T04:50:22.778Z,83.79
2019-06-08T04:51:11.366Z,83.69
2019-06-08T04:52:11.502Z,83.89
2019-06-08T04:53:11.637Z,83.69
2019-06-08T04:54:14.377Z,83.79
2019-06-08T04:55:11.891Z,83.50
2019-06-08T04:56:12.022Z,82.74
2019-06-08T04:57:12.152Z,82.93
2019-06-08T04:58:12.289Z,83.03
2019-06-08T04:59:12.411Z,82.93
2019-06-08T05:00:13.137Z,83.79
2019-06-08T05:01:12.671Z,83.31
2019-06-08T05:02:12.803Z,81.78
2019-06-08T05:03:12.932Z,81.88
2019-06-08T05:04:13.064Z,81.78
2019-06-08T05:05:13.194Z,82.26
2019-06-08T05:06:13.327Z,82.93
2019-06-08T05:07:13.466Z,82.74
2019-06-08T05:08:13.603Z,81.97
2019-06-08T05:09:13.734Z,81.78
2019-06-08T05:10:13.870Z,82.26
2019-06-08T05:11:13.987Z,82.35
2019-06-08T05:12:14.115Z,81.78
2019-06-08T05:13:14.245Z,81.97
2019-06-08T05:14:14.376Z,81.97
2019-06-08T05:15:14.507Z,82.35
2019-06-08T05:16:14.643Z,81.78
2019-06-08T05:17:14.787Z,81.21
2019-06-08T05:18:14.904Z,81.49
2019-06-08T05:19:15.030Z,81.59
2019-06-08T05:20:15.159Z,81.49
2019-06-08T05:21:15.292Z,80.44
2019-06-08T05:22:15.424Z,79.87
2019-06-08T05:23:15.555Z,79.77
2019-06-08T05:24:15.685Z,79.39
2019-06-08T05:25:15.814Z,80.25
2019-06-08T05:26:15.942Z,79.68
2019-06-08T05:27:16.062Z,79.39
2019-06-08T05:28:16.201Z,79.68
2019-06-08T05:29:16.331Z,79.77
2019-06-08T05:30:16.461Z,80.16
2019-06-08T05:31:16.589Z,79.96
2019-06-08T05:32:16.749Z,79.39
2019-06-08T05:33:16.861Z,79.39
2019-06-08T05:34:17.021Z,80.35
2019-06-08T05:35:17.127Z,79.87
2019-06-08T05:36:17.275Z,79.87
2019-06-08T05:37:17.394Z,79.10
2019-06-08T05:38:17.529Z,79.77
2019-06-08T05:39:17.662Z,79.96
2019-06-08T05:40:17.796Z,79.20
2019-06-08T05:41:17.963Z,80.44
2019-06-08T05:42:18.044Z,81.30
2019-06-08T05:43:18.190Z,80.63
2019-06-08T05:44:18.317Z,80.54
2019-06-08T05:45:18.451Z,79.68
2019-06-08T05:46:18.585Z,79.96
2019-06-08T05:47:18.706Z,79.49
2019-06-08T05:48:18.839Z,78.72
2019-06-08T05:49:18.977Z,78.24
2019-06-08T05:50:19.108Z,79.00
2019-06-08T05:51:19.242Z,79.29
2019-06-08T05:52:19.357Z,79.49
2019-06-08T05:53:19.505Z,79.39
2019-06-08T05:54:19.644Z,79.58
2019-06-08T05:55:19.765Z,79.00
2019-06-08T05:56:19.917Z,78.43
2019-06-08T05:57:20.025Z,78.72
2019-06-08T05:58:20.163Z,78.63
2019-06-08T05:59:20.303Z,78.53
2019-06-08T06:00:20.434Z,78.14
2019-06-08T06:01:20.557Z,76.42
2019-06-08T06:02:20.686Z,77.19
2019-06-08T06:03:20.813Z,77.57
2019-06-08T06:04:20.953Z,77.48
2019-06-08T06:05:21.089Z,77.38
2019-06-08T06:06:21.211Z,77.95
2019-06-08T06:07:21.341Z,77.19
2019-06-08T06:08:21.481Z,77.28
2019-06-08T06:09:21.631Z,76.52
2019-06-08T06:10:21.747Z,76.14
2019-06-08T06:11:21.875Z,76.42
2019-06-08T06:12:22.007Z,76.23
2019-06-08T06:13:22.133Z,75.95
2019-06-08T06:14:22.264Z,76.27
2019-06-08T06:15:22.398Z,75.70
2019-06-08T06:16:22.540Z,75.31
2019-06-08T06:17:22.657Z,76.04
2019-06-08T06:18:22.785Z,75.98
2019-06-08T06:19:22.917Z,75.41
2019-06-08T06:20:23.050Z,74.74
2019-06-08T06:21:23.178Z,74.36
2019-06-08T06:22:23.311Z,74.26
2019-06-08T06:23:23.444Z,75.02
2019-06-08T06:24:23.575Z,74.55
2019-06-08T06:25:23.706Z,74.65
2019-06-08T06:26:23.830Z,74.26
2019-06-08T06:27:23.965Z,74.55
2019-06-08T06:28:24.098Z,75.31
2019-06-08T06:29:24.226Z,74.74
2019-06-08T06:30:24.357Z,73.21
2019-06-08T06:31:24.485Z,73.40
2019-06-08T06:32:24.615Z,73.59
2019-06-08T06:33:24.761Z,72.73
2019-06-08T06:34:24.892Z,70.53
2019-06-08T06:35:25.020Z,69.67
2019-06-08T06:36:25.157Z,69.67
2019-06-08T06:37:25.287Z,70.72
2019-06-08T06:38:25.427Z,69.95
2019-06-08T06:39:25.562Z,69.38
2019-06-08T06:40:25.697Z,68.52
2019-06-08T06:41:25.829Z,68.23
2019-06-08T06:42:25.956Z,68.71
2019-06-08T06:43:26.079Z,68.42
2019-06-08T06:44:26.212Z,69.19
2019-06-08T06:45:26.352Z,69.13
2019-06-08T06:46:26.467Z,68.65
2019-06-08T06:47:26.607Z,67.60
2019-06-08T06:48:26.733Z,68.07
2019-06-08T06:49:26.858Z,67.41
2019-06-08T06:50:26.990Z,67.21
2019-06-08T06:51:27.114Z,67.21
2019-06-08T06:52:27.247Z,67.21
2019-06-08T06:53:27.382Z,65.01
2019-06-08T06:54:27.519Z,65.01
2019-06-08T06:55:27.648Z,63.96
2019-06-08T06:56:27.764Z,64.15
2019-06-08T06:57:27.892Z,65.20
2019-06-08T06:58:28.027Z,65.01
2019-06-08T06:59:28.168Z,66.16
2019-06-08T07:00:28.284Z,64.72
2019-06-08T07:01:28.414Z,64.82
2019-06-08T07:02:28.545Z,62.90
2019-06-08T07:03:28.670Z,62.43
2019-06-08T07:04:28.816Z,62.43
2019-06-08T07:05:28.936Z,63.26
2019-06-08T07:06:29.071Z,64.53
2019-06-08T07:07:29.203Z,64.22
2019-06-08T07:08:29.323Z,65.20
2019-06-08T07:09:29.466Z,65.58
2019-06-08T07:10:29.580Z,65.39
2019-06-08T07:11:29.718Z,64.92
2019-06-08T07:12:29.853Z,63.39
2019-06-08T07:13:29.987Z,63.19
2019-06-08T07:14:30.114Z,62.43
2019-06-08T07:15:30.247Z,61.54
2019-06-08T07:16:30.374Z,61.54
2019-06-08T07:17:30.513Z,62.68
2019-06-08T07:18:30.638Z,62.49
2019-06-08T07:19:30.766Z,61.82
2019-06-08T07:20:30.900Z,62.62
2019-06-08T07:21:41.203Z,62.23
2019-06-08T07:22:31.172Z,63.00
2019-06-08T07:23:31.290Z,63.76
2019-06-08T07:24:31.424Z,63.10
2019-06-08T07:25:31.588Z,62.71
2019-06-08T07:26:31.689Z,63.19
2019-06-08T07:27:31.818Z,63.96
2019-06-08T07:28:31.950Z,63.57
2019-06-08T07:29:32.086Z,63.48
2019-06-08T07:30:32.212Z,63.29
2019-06-08T07:31:32.340Z,64.25
2019-06-08T07:32:32.471Z,64.82
2019-06-08T07:33:32.650Z,65.68
2019-06-08T07:34:32.761Z,64.56
2019-06-08T07:35:32.888Z,63.39
2019-06-08T07:36:33.023Z,64.09
2019-06-08T07:37:33.215Z,64.66
2019-06-08T07:38:33.315Z,63.51
2019-06-08T07:39:33.449Z,64.37
2019-06-08T07:40:33.586Z,64.09
2019-06-08T07:41:33.783Z,65.05
2019-06-08T07:42:33.845Z,65.14
2019-06-08T07:43:33.978Z,64.85
2019-06-08T07:44:34.119Z,65.33
2019-06-08T07:45:34.245Z,63.51
2019-06-08T07:46:34.371Z,63.42
2019-06-08T07:47:34.506Z,64.43
2019-06-08T07:48:34.641Z,64.85
2019-06-08T07:49:34.768Z,64.85
2019-06-08T07:50:34.896Z,64.47
2019-06-08T07:51:35.052Z,62.65
2019-06-08T07:52:35.186Z,61.85
2019-06-08T07:53:35.313Z,62.43
2019-06-08T07:54:35.447Z,62.52
2019-06-08T07:55:35.664Z,62.04
2019-06-08T07:56:35.740Z,60.51
2019-06-08T07:57:35.888Z,60.22
2019-06-08T07:58:35.989Z,61.08
2019-06-08T07:59:36.120Z,62.04
2019-06-08T08:00:36.232Z,61.37
2019-06-08T08:01:36.797Z,61.37
2019-06-08T08:02:36.531Z,62.43
2019-06-08T08:03:36.657Z,61.76
2019-06-08T08:04:36.797Z,61.94
2019-06-08T08:05:36.938Z,60.41
2019-06-08T08:06:37.067Z,61.18
2019-06-08T08:07:37.314Z,61.66
2019-06-08T08:08:37.328Z,61.60
2019-06-08T08:09:37.460Z,60.99
2019-06-08T08:10:37.614Z,60.22
2019-06-08T08:11:37.739Z,60.22
2019-06-08T08:12:37.871Z,61.28
2019-06-08T08:13:38.004Z,61.88
2019-06-08T08:14:38.175Z,61.31
2019-06-08T08:15:38.293Z,61.98
2019-06-08T08:16:38.407Z,63.22
2019-06-08T08:17:38.554Z,63.51
2019-06-08T08:18:38.709Z,63.06
2019-06-08T08:19:38.837Z,62.68
2019-06-08T08:20:38.960Z,62.20
2019-06-08T08:21:40.953Z,61.82
2019-06-08T08:22:39.243Z,63.35
2019-06-08T08:23:39.372Z,63.45
2019-06-08T08:24:39.507Z,62.81
2019-06-08T08:25:39.647Z,61.91
2019-06-08T08:26:39.786Z,61.15
2019-06-08T08:27:39.916Z,59.71
2019-06-08T08:28:40.046Z,59.80
2019-06-08T08:29:40.202Z,60.28
2019-06-08T08:30:40.327Z,59.23
2019-06-08T08:31:40.458Z,59.52
2019-06-08T08:32:40.615Z,59.71
2019-06-08T08:33:40.743Z,59.13
2019-06-08T08:34:40.873Z,60.47
2019-06-08T08:35:41.002Z,61.24
2019-06-08T08:36:41.162Z,61.15
2019-06-08T08:37:41.313Z,59.90
2019-06-08T08:38:41.423Z,59.04
2019-06-08T08:39:41.575Z,60.19
2019-06-08T08:40:41.684Z,60.28
2019-06-08T08:41:41.832Z,61.43
2019-06-08T08:42:41.944Z,61.43
2019-06-08T08:43:42.089Z,62.59
2019-06-08T08:44:42.218Z,61.05
2019-06-08T08:45:42.361Z,60.28
2019-06-08T08:46:42.575Z,60.67
2019-06-08T08:47:42.655Z,61.43
2019-06-08T08:48:42.780Z,61.24
2019-06-08T08:49:42.956Z,61.43
2019-06-08T08:50:43.051Z,61.63
2019-06-08T08:51:43.175Z,62.10
2019-06-08T08:52:43.337Z,62.87
2019-06-08T08:53:43.481Z,61.82
2019-06-08T08:54:43.607Z,62.49
2019-06-08T08:55:43.738Z,62.10
2019-06-08T08:56:43.894Z,62.01
2019-06-08T08:57:44.013Z,61.91
2019-06-08T08:58:44.155Z,61.82
2019-06-08T08:59:44.291Z,62.39
2019-06-08T09:00:44.447Z,63.16
2019-06-08T09:01:44.575Z,63.26
2019-06-08T09:02:44.713Z,63.64
2019-06-08T09:03:44.899Z,63.54
2019-06-08T09:04:47.569Z,63.54
2019-06-08T09:05:45.116Z,62.01
2019-06-08T09:06:45.244Z,61.63
2019-06-08T09:07:48.035Z,61.91
2019-06-08T09:08:45.514Z,62.10
2019-06-08T09:09:48.063Z,62.39
2019-06-08T09:10:47.909Z,61.72
2019-06-08T09:11:48.418Z,61.82
2019-06-08T09:12:48.361Z,63.00
2019-06-08T09:13:48.703Z,62.13
2019-06-08T09:14:47.901Z,62.52
2019-06-08T09:15:47.987Z,62.23
2019-06-08T09:16:48.150Z,63.00
2019-06-08T09:17:48.299Z,61.56
2019-06-08T09:18:47.962Z,60.99
2019-06-08T09:19:48.119Z,61.40
2019-06-08T09:20:47.909Z,60.41
2019-06-08T09:21:48.175Z,59.55
2019-06-08T09:22:56.438Z,58.49
2019-06-08T09:23:48.611Z,58.49
2019-06-08T09:24:48.555Z,59.55
2019-06-08T09:25:48.409Z,60.03
2019-06-08T09:26:47.964Z,59.13
2019-06-08T09:27:48.408Z,59.36
2019-06-08T09:28:48.227Z,59.64
2019-06-08T09:29:48.445Z,59.93
2019-06-08T09:30:48.550Z,60.22
2019-06-08T09:31:49.141Z,60.22
2019-06-08T09:32:48.787Z,60.22
2019-06-08T09:34:06.680Z,59.64
2019-06-08T09:34:54.622Z,59.74
2019-06-08T09:35:49.127Z,59.55
2019-06-08T09:36:49.269Z,60.31
2019-06-08T09:37:49.402Z,60.50
2019-06-08T09:38:49.888Z,59.16
2019-06-08T09:39:49.657Z,59.36
2019-06-08T09:40:49.781Z,59.06
2019-06-08T09:41:49.916Z,59.83
2019-06-08T09:42:51.430Z,59.45
2019-06-08T09:43:50.193Z,59.45
2019-06-08T09:44:50.317Z,59.55
2019-06-08T09:45:50.449Z,60.50
2019-06-08T09:46:50.628Z,61.21
2019-06-08T09:47:50.741Z,61.59
2019-06-08T09:48:50.872Z,60.08
2019-06-08T09:49:51.018Z,62.01
2019-06-08T09:50:51.155Z,61.72
2019-06-08T09:51:51.299Z,59.12
2019-06-08T09:53:06.273Z,59.00
2019-06-08T09:53:51.566Z,59.29
2019-06-08T09:54:51.698Z,59.29
2019-06-08T09:55:53.275Z,59.38
2019-06-08T09:56:53.593Z,59.29
2019-06-08T09:57:54.510Z,59.55
2019-06-08T09:58:52.230Z,59.83
2019-06-08T09:59:54.756Z,60.22
2019-06-08T10:00:54.551Z,60.09
2019-06-08T10:01:54.172Z,60.96
2019-06-08T10:02:54.632Z,61.75
2019-06-08T10:03:54.313Z,62.90
2019-06-08T10:04:54.125Z,63.00
2019-06-08T10:05:54.233Z,62.45
2019-06-08T10:06:54.318Z,63.89
2019-06-08T10:07:54.486Z,63.12
2019-06-08T10:08:54.289Z,61.88
2019-06-08T10:09:54.259Z,62.07
2019-06-08T10:10:54.497Z,63.12
2019-06-08T10:11:54.266Z,63.22
2019-06-08T10:12:54.558Z,63.12
2019-06-08T10:13:54.525Z,62.84
2019-06-08T10:14:54.623Z,62.84
2019-06-08T10:15:54.909Z,60.35
2019-06-08T10:16:54.640Z,61.40
2019-06-08T10:17:54.869Z,62.65
2019-06-08T10:18:55.113Z,63.03
2019-06-08T10:19:57.901Z,62.65
2019-06-08T10:20:58.050Z,63.32
2019-06-08T10:21:56.791Z,62.52
2019-06-08T10:22:57.251Z,62.93
2019-06-08T10:23:58.296Z,63.70
2019-06-08T10:24:56.967Z,62.90
2019-06-08T10:25:58.280Z,62.71
2019-06-08T10:26:57.164Z,62.04
2019-06-08T10:28:00.060Z,62.62
2019-06-08T10:28:58.720Z,62.52
2019-06-08T10:29:58.648Z,62.62
2019-06-08T10:30:59.655Z,63.29
2019-06-08T10:31:57.235Z,63.32
2019-06-08T10:33:00.446Z,62.93
2019-06-08T10:34:01.483Z,61.46
2019-06-08T10:35:00.033Z,61.40
2019-06-08T10:36:01.489Z,62.84
2019-06-08T10:37:00.698Z,62.93
2019-06-08T10:38:01.520Z,62.84
2019-06-08T10:39:01.609Z,61.78
2019-06-08T10:40:01.593Z,59.19
2019-06-08T10:41:04.786Z,58.42
2019-06-08T10:42:01.093Z,58.42
2019-06-08T10:43:00.700Z,58.33
2019-06-08T10:43:59.183Z,58.11
2019-06-08T10:45:02.826Z,58.11
2019-06-08T10:46:04.925Z,59.45
2019-06-08T10:47:01.598Z,59.64
2019-06-08T10:48:00.835Z,59.96
2019-06-08T10:48:59.607Z,60.31
2019-06-08T10:50:05.427Z,60.44
2019-06-08T10:51:02.328Z,60.05
2019-06-08T10:52:02.172Z,58.59
2019-06-08T10:53:02.508Z,58.59
2019-06-08T10:53:59.968Z,59.26
2019-06-08T10:55:01.551Z,60.41
2019-06-08T10:56:01.349Z,59.55
2019-06-08T10:57:02.543Z,59.64
2019-06-08T10:58:00.206Z,60.41
2019-06-08T10:59:02.334Z,59.74
2019-06-08T11:00:01.467Z,61.78
2019-06-08T11:01:03.878Z,61.98
2019-06-08T11:02:02.720Z,60.35
2019-06-08T11:03:03.307Z,61.30
2019-06-08T11:04:01.956Z,61.21
2019-06-08T11:05:04.680Z,60.12
2019-06-08T11:06:02.935Z,61.46
2019-06-08T11:07:07.157Z,62.04
2019-06-08T11:08:02.949Z,61.75
2019-06-08T11:09:04.243Z,62.71
2019-06-08T11:10:02.426Z,62.71
2019-06-08T11:11:02.871Z,62.33
2019-06-08T11:12:03.183Z,62.23
2019-06-08T11:13:06.279Z,62.52
2019-06-08T11:14:03.815Z,62.13
2019-06-08T11:15:03.546Z,62.90
2019-06-08T11:16:03.998Z,63.09
2019-06-08T11:17:02.860Z,62.81
2019-06-08T11:18:06.665Z,63.38
2019-06-08T11:19:04.291Z,63.09
2019-06-08T11:20:04.792Z,63.57
2019-06-08T11:21:03.677Z,62.90
2019-06-08T11:22:06.170Z,63.48
2019-06-08T11:23:03.596Z,63.29
2019-06-08T11:24:13.318Z,63.48
2019-06-08T11:25:04.446Z,63.48
2019-06-08T11:26:12.172Z,63.19
2019-06-08T11:27:05.567Z,63.29
2019-06-08T11:28:05.477Z,62.81
2019-06-08T11:29:05.076Z,61.46
2019-06-08T11:30:11.502Z,61.27
2019-06-08T11:31:05.958Z,61.56
2019-06-08T11:32:05.785Z,60.31
2019-06-08T11:33:06.130Z,60.53
2019-06-08T11:34:06.155Z,60.35
2019-06-08T11:35:06.469Z,59.67
2019-06-08T11:36:07.198Z,58.04
2019-06-08T11:37:09.359Z,58.52
2019-06-08T11:38:06.719Z,58.62
2019-06-08T11:39:06.810Z,59.96
2019-06-08T11:40:07.151Z,59.58
2019-06-08T11:41:09.382Z,59.86
2019-06-08T11:42:09.187Z,59.67
2019-06-08T11:43:06.484Z,60.44
2019-06-08T11:44:08.968Z,59.67
2019-06-08T11:45:09.157Z,60.63
2019-06-08T11:46:06.729Z,60.53
2019-06-08T11:47:09.753Z,60.35
2019-06-08T11:48:06.808Z,60.53
2019-06-08T11:49:12.550Z,60.35
2019-06-08T11:50:09.603Z,60.12
2019-06-08T11:51:09.574Z,60.82
2019-06-08T11:52:08.964Z,60.44
2019-06-08T11:53:10.596Z,60.35
2019-06-08T11:54:25.464Z,59.45
2019-06-08T11:55:11.222Z,59.58
2019-06-08T11:56:10.049Z,60.25
2019-06-08T11:57:10.852Z,61.88
2019-06-08T11:58:10.440Z,61.21
2019-06-08T11:59:11.469Z,62.07
2019-06-08T12:00:14.986Z,61.69
2019-06-08T12:01:11.648Z,61.30
2019-06-08T12:02:11.110Z,61.69
2019-06-08T12:03:11.274Z,62.07
2019-06-08T12:04:09.937Z,61.98
2019-06-08T12:05:11.253Z,61.78
2019-06-08T12:06:12.050Z,61.59
2019-06-08T12:07:11.143Z,61.88
2019-06-08T12:08:10.591Z,61.21
2019-06-08T12:09:12.287Z,60.15
2019-06-08T12:10:12.482Z,61.30
2019-06-08T12:11:16.315Z,61.59
2019-06-08T12:12:17.144Z,60.35
2019-06-08T12:13:12.777Z,60.53
2019-06-08T12:14:11.451Z,60.53
2019-06-08T12:15:13.202Z,60.44
2019-06-08T12:16:15.862Z,61.40
2019-06-08T12:17:15.348Z,61.30
2019-06-08T12:18:12.399Z,61.14
2019-06-08T12:19:15.050Z,61.52
2019-06-08T12:20:17.080Z,61.62
2019-06-08T12:21:12.883Z,60.47
2019-06-08T12:22:13.027Z,60.47
2019-06-08T12:23:12.070Z,60.47
2019-06-08T12:24:12.381Z,61.72
2019-06-08T12:25:12.240Z,61.81
2019-06-08T12:26:12.274Z,60.66
2019-06-08T12:27:23.779Z,61.36
2019-06-08T12:28:12.580Z,59.73
2019-06-08T12:29:13.449Z,59.64
2019-06-08T12:30:20.531Z,59.44
2019-06-08T12:31:17.342Z,57.43
2019-06-08T12:32:14.034Z,58.10
2019-06-08T12:33:13.878Z,58.67
2019-06-08T12:34:13.498Z,58.96
2019-06-08T12:35:13.897Z,58.96
2019-06-08T12:36:15.588Z,58.87
2019-06-08T12:37:17.987Z,59.34
2019-06-08T12:38:14.271Z,57.50
2019-06-08T12:39:14.270Z,58.10
2019-06-08T12:40:16.047Z,58.17
2019-06-08T12:41:14.455Z,58.17
2019-06-08T12:42:18.446Z,57.97
2019-06-08T12:43:15.739Z,58.26
2019-06-08T12:44:15.544Z,59.41
2019-06-08T12:45:15.457Z,58.64
2019-06-08T12:46:16.141Z,58.45
2019-06-08T12:47:17.964Z,59.34
2019-06-08T12:48:18.423Z,60.40
2019-06-08T12:49:16.478Z,60.21
2019-06-08T12:50:16.507Z,59.73
2019-06-08T12:51:17.241Z,59.47
2019-06-08T12:52:16.767Z,57.43
2019-06-08T12:53:20.144Z,57.26
2019-06-08T12:54:16.855Z,58.32